Time;durP1;ratioP1;P1;durP2;ratioP2;P2;SDS_P1;SDS_P2;PMS_P1;PMS_P2;Temp;Humidity;BMP_temperature;BMP_pressure;BME280_temperature;BME280_humidity;BME280_pressure;Samples;Min_cycle;Max_cycle;Signal;HPM_P1;HPM_P2
2021/01/14 00:00:58;;;;;;;2.80;1.80;;;21.00;29.70;;;;;;5073063;28;20868;-60
2021/01/14 00:03:24;;;;;;;2.72;1.75;;;21.00;29.80;;;;;;5072715;28;20388;-59
2021/01/14 00:05:49;;;;;;;2.90;1.90;;;21.00;29.80;;;;;;5072838;28;20392;-60
2021/01/14 00:08:15;;;;;;;2.35;1.70;;;21.00;29.80;;;;;;5072406;28;20387;-60
2021/01/14 00:10:41;;;;;;;2.67;1.77;;;20.90;29.70;;;;;;5072456;28;20441;-60
2021/01/14 00:13:07;;;;;;;2.40;1.77;;;21.00;29.80;;;;;;5072190;28;20466;-59
2021/01/14 00:15:34;;;;;;;1.98;1.50;;;21.00;29.80;;;;;;5072044;28;20418;-60
2021/01/14 00:18:00;;;;;;;2.03;1.40;;;21.00;29.80;;;;;;5072673;28;20380;-76
2021/01/14 00:20:27;;;;;;;2.15;1.50;;;21.00;29.80;;;;;;5072192;28;20752;-60
2021/01/14 00:22:53;;;;;;;2.40;1.60;;;20.90;29.70;;;;;;5072513;28;20880;-59
2021/01/14 00:25:20;;;;;;;2.45;1.52;;;20.90;29.70;;;;;;5072451;28;20471;-59
2021/01/14 00:27:46;;;;;;;2.30;1.40;;;20.90;29.80;;;;;;5072610;28;20440;-59
2021/01/14 00:30:15;;;;;;;2.20;1.60;;;20.90;29.70;;;;;;5072419;28;20380;-59
2021/01/14 00:32:40;;;;;;;1.98;1.40;;;20.90;29.70;;;;;;5071516;28;20387;-60
2021/01/14 00:35:07;;;;;;;1.90;1.40;;;20.90;29.70;;;;;;5072075;28;20412;-59
2021/01/14 00:37:51;;;;;;;2.30;1.50;;;20.90;29.70;;;;;;5072261;28;20555;-59
2021/01/14 00:40:25;;;;;;;2.03;1.47;;;20.90;29.70;;;;;;5071775;28;20751;-59
2021/01/14 00:43:17;;;;;;;1.88;1.23;;;20.80;29.70;;;;;;5072133;28;20465;-59
2021/01/14 00:45:43;;;;;;;1.92;1.30;;;20.90;29.70;;;;;;5070432;28;20472;-76
2021/01/14 00:48:09;;;;;;;1.63;1.20;;;20.90;29.70;;;;;;5071985;28;20390;-59
2021/01/14 00:50:35;;;;;;;1.90;1.20;;;20.90;29.70;;;;;;5071387;28;20388;-59
2021/01/14 00:53:00;;;;;;;1.63;1.10;;;20.90;29.70;;;;;;5071921;28;20387;-59
2021/01/14 00:55:26;;;;;;;1.73;1.00;;;20.90;29.70;;;;;;5071722;28;20894;-59
2021/01/14 00:57:53;;;;;;;1.65;1.10;;;20.90;29.70;;;;;;5072030;28;20392;-71
2021/01/14 01:00:21;;;;;;;1.70;1.00;;;20.90;29.70;;;;;;5070151;28;20392;-59
2021/01/14 01:02:48;;;;;;;1.70;1.00;;;20.80;29.70;;;;;;5071708;28;20872;-59
2021/01/14 01:05:15;;;;;;;1.50;1.00;;;20.90;29.70;;;;;;5071688;28;20402;-59
2021/01/14 01:07:51;;;;;;;1.80;1.10;;;20.90;29.70;;;;;;5071739;28;20939;-60
2021/01/14 01:10:18;;;;;;;1.35;0.95;;;20.80;29.70;;;;;;5071392;28;20473;-59
2021/01/14 01:12:44;;;;;;;1.70;1.00;;;20.80;29.70;;;;;;5071445;28;20387;-60
2021/01/14 01:15:11;;;;;;;1.20;0.90;;;20.80;29.70;;;;;;5071632;28;20503;-62
2021/01/14 01:17:37;;;;;;;1.60;0.90;;;20.80;29.70;;;;;;5071679;28;20416;-60
2021/01/14 01:20:03;;;;;;;1.35;0.90;;;20.80;29.70;;;;;;5071685;28;20426;-59
2021/01/14 01:22:29;;;;;;;1.25;0.90;;;20.80;29.70;;;;;;5071154;28;20375;-59
2021/01/14 01:24:55;;;;;;;1.20;0.80;;;20.80;29.70;;;;;;5071187;28;20445;-60
2021/01/14 01:27:20;;;;;;;1.20;0.80;;;20.80;30.10;;;;;;5071478;28;20518;-59
2021/01/14 01:29:46;;;;;;;1.10;0.80;;;20.80;29.70;;;;;;5071415;28;20407;-59
2021/01/14 01:32:12;;;;;;;1.10;0.70;;;20.80;29.70;;;;;;5071759;28;20384;-59
2021/01/14 01:34:37;;;;;;;1.03;0.70;;;20.80;29.90;;;;;;5070260;28;20423;-60
2021/01/14 01:37:04;;;;;;;1.40;0.70;;;20.90;30.60;;;;;;5067926;28;20457;-59
2021/01/14 01:39:30;;;;;;;1.13;0.63;;;20.90;30.00;;;;;;5071459;28;20795;-59
2021/01/14 01:41:59;;;;;;;1.20;0.80;;;20.80;29.90;;;;;;5071588;28;20412;-59
2021/01/14 01:44:25;;;;;;;1.30;0.80;;;20.80;29.90;;;;;;5070847;28;20474;-59
2021/01/14 01:46:55;;;;;;;1.00;0.70;;;20.80;29.90;;;;;;5071400;28;20384;-73
2021/01/14 01:49:21;;;;;;;0.83;0.50;;;20.80;29.90;;;;;;5071309;28;20380;-59
2021/01/14 01:51:46;;;;;;;0.83;0.60;;;20.80;29.90;;;;;;5071433;28;20461;-59
2021/01/14 01:54:13;;;;;;;1.10;0.60;;;20.80;29.90;;;;;;5071062;28;20903;-60
2021/01/14 01:56:39;;;;;;;1.48;0.80;;;20.80;29.90;;;;;;5070641;28;20403;-59
2021/01/14 01:59:05;;;;;;;1.40;0.60;;;20.80;29.90;;;;;;5069971;28;20380;-60
2021/01/14 02:01:30;;;;;;;1.27;0.70;;;20.80;29.90;;;;;;5071369;28;20449;-60
2021/01/14 02:03:56;;;;;;;0.90;0.50;;;20.80;29.90;;;;;;5071180;28;20395;-59
2021/01/14 02:06:22;;;;;;;1.00;0.60;;;20.80;29.90;;;;;;5070798;28;20460;-59
2021/01/14 02:09:04;;;;;;;1.52;0.60;;;20.80;29.80;;;;;;5069692;28;20386;-59
2021/01/14 02:11:53;;;;;;;1.58;0.63;;;20.80;30.00;;;;;;5070247;28;20399;-59
2021/01/14 02:14:24;;;;;;;2.00;0.65;;;20.80;30.00;;;;;;5067912;28;20887;-60
2021/01/14 02:16:51;;;;;;;2.55;0.60;;;20.90;30.10;;;;;;5069200;28;20392;-60
2021/01/14 02:19:30;;;;;;;3.03;0.60;;;20.90;30.00;;;;;;5067869;28;20548;-68
2021/01/14 02:22:04;;;;;;;1.58;0.60;;;20.90;30.00;;;;;;5068238;28;20403;-60
2021/01/14 02:24:48;;;;;;;2.53;0.60;;;20.90;30.00;;;;;;5070679;28;20411;-59
2021/01/14 02:27:15;;;;;;;2.43;0.63;;;20.80;30.00;;;;;;5070842;28;20384;-59
2021/01/14 02:29:42;;;;;;;1.60;0.60;;;20.80;30.00;;;;;;5070895;28;20387;-60
2021/01/14 02:32:15;;;;;;;1.20;0.60;;;20.80;30.00;;;;;;5070902;28;20380;-59
2021/01/14 02:34:41;;;;;;;1.50;0.63;;;20.80;30.10;;;;;;5070169;28;20938;-59
2021/01/14 02:37:06;;;;;;;1.80;0.50;;;20.80;30.10;;;;;;5071703;28;20430;-59
2021/01/14 02:39:32;;;;;;;2.30;0.50;;;20.80;30.10;;;;;;5074564;28;20387;-59
2021/01/14 02:41:58;;;;;;;1.00;0.50;;;20.80;30.10;;;;;;5074772;28;20383;-59
2021/01/14 02:44:23;;;;;;;1.65;0.50;;;20.80;30.10;;;;;;5074170;28;20405;-60
2021/01/14 02:46:49;;;;;;;1.03;0.50;;;20.70;30.00;;;;;;5074345;28;20394;-59
2021/01/14 02:49:15;;;;;;;1.05;0.50;;;20.80;30.10;;;;;;5074395;28;20391;-59
2021/01/14 02:51:54;;;;;;;0.88;0.43;;;20.80;30.00;;;;;;5074338;28;20386;-59
2021/01/14 02:54:20;;;;;;;0.90;0.50;;;20.80;30.10;;;;;;5074094;28;20407;-59
2021/01/14 02:56:49;;;;;;;1.30;0.50;;;20.80;30.10;;;;;;5073964;28;20856;-59
2021/01/14 02:59:15;;;;;;;1.30;0.40;;;20.70;30.00;;;;;;5074058;28;20859;-59
2021/01/14 03:01:41;;;;;;;0.80;0.40;;;20.80;30.10;;;;;;5074170;28;20399;-59
2021/01/14 03:04:09;;;;;;;0.70;0.50;;;20.80;30.00;;;;;;5074100;28;20383;-59
2021/01/14 03:06:35;;;;;;;0.75;0.40;;;20.70;30.00;;;;;;5073570;28;20396;-59
2021/01/14 03:09:01;;;;;;;0.90;0.40;;;20.80;30.00;;;;;;5072667;28;20445;-59
2021/01/14 03:11:27;;;;;;;1.25;0.40;;;20.80;30.10;;;;;;5073969;28;20383;-59
2021/01/14 03:13:54;;;;;;;0.57;0.37;;;20.80;30.00;;;;;;5073987;28;20470;-59
2021/01/14 03:16:20;;;;;;;1.20;0.70;;;20.80;30.00;;;;;;5073834;28;20388;-60
2021/01/14 03:18:48;;;;;;;1.07;0.50;;;20.80;30.00;;;;;;5073640;28;20446;-59
2021/01/14 03:21:24;;;;;;;0.80;0.40;;;20.80;30.00;;;;;;5073768;28;20482;-59
2021/01/14 03:23:51;;;;;;;0.80;0.40;;;20.70;30.00;;;;;;5073751;28;20388;-59
2021/01/14 03:26:18;;;;;;;1.30;0.52;;;20.70;30.00;;;;;;5073685;28;20872;-59
2021/01/14 03:28:46;;;;;;;0.75;0.40;;;20.70;30.00;;;;;;5073163;28;20828;-59
2021/01/14 03:31:13;;;;;;;0.60;0.40;;;20.80;30.00;;;;;;5073536;28;20856;-60
2021/01/14 03:33:40;;;;;;;0.47;0.30;;;20.80;30.00;;;;;;5073342;28;20415;-59
2021/01/14 03:36:07;;;;;;;1.30;0.45;;;20.70;29.90;;;;;;5073596;28;20953;-60
2021/01/14 03:38:37;;;;;;;0.60;0.40;;;20.70;30.00;;;;;;5072863;28;20390;-59
2021/01/14 03:41:13;;;;;;;0.70;0.40;;;20.70;29.90;;;;;;5073454;28;20502;-59
2021/01/14 03:43:39;;;;;;;1.00;0.35;;;20.70;30.00;;;;;;5073468;28;20471;-59
2021/01/14 03:46:08;;;;;;;0.50;0.33;;;20.70;30.00;;;;;;5073336;28;20616;-59
2021/01/14 03:48:39;;;;;;;0.50;0.40;;;20.70;30.00;;;;;;5072595;28;20383;-59
2021/01/14 03:51:13;;;;;;;0.40;0.30;;;20.70;30.00;;;;;;5073297;28;20441;-59
2021/01/14 03:53:39;;;;;;;0.82;0.30;;;20.70;30.00;;;;;;5073084;28;20466;-59
2021/01/14 03:56:04;;;;;;;0.50;0.30;;;20.70;30.00;;;;;;5073108;28;20535;-59
2021/01/14 03:58:30;;;;;;;0.55;0.30;;;20.70;30.00;;;;;;5072476;28;20441;-59
2021/01/14 04:00:55;;;;;;;0.47;0.33;;;20.70;30.00;;;;;;5073034;28;20408;-59
2021/01/14 04:03:21;;;;;;;0.60;0.30;;;20.70;30.00;;;;;;5072855;28;20384;-59
2021/01/14 04:05:49;;;;;;;0.65;0.40;;;20.70;30.00;;;;;;5072938;28;20399;-59
2021/01/14 04:08:15;;;;;;;1.60;0.40;;;20.70;30.50;;;;;;5072804;28;20384;-59
2021/01/14 04:10:40;;;;;;;0.80;0.30;;;20.70;30.10;;;;;;5071019;28;20797;-59
2021/01/14 04:13:06;;;;;;;1.27;0.30;;;20.70;30.30;;;;;;5072827;28;20577;-59
2021/01/14 04:15:31;;;;;;;0.70;0.40;;;20.80;30.00;;;;;;5072585;28;20423;-60
2021/01/14 04:17:57;;;;;;;1.27;0.40;;;20.80;30.40;;;;;;5072635;28;20380;-59
2021/01/14 04:20:22;;;;;;;0.70;0.40;;;20.80;30.70;;;;;;5072799;28;20384;-59
2021/01/14 04:22:50;;;;;;;0.50;0.40;;;20.90;31.10;;;;;;5072477;28;20384;-59
2021/01/14 04:25:16;;;;;;;1.20;0.40;;;20.90;31.80;;;;;;5072474;28;20404;-59
2021/01/14 04:27:41;;;;;;;2.08;0.40;;;21.00;31.90;;;;;;5072437;28;20386;-59
2021/01/14 04:30:08;;;;;;;4.13;0.40;;;21.00;31.50;;;;;;5019471;28;20514;-62
2021/01/14 04:32:33;;;;;;;1.60;0.40;;;21.00;32.10;;;;;;5071781;28;20852;-60
2021/01/14 04:34:59;;;;;;;1.87;0.40;;;21.10;32.30;;;;;;5071792;28;20416;-60
2021/01/14 04:37:25;;;;;;;2.30;0.38;;;21.10;32.30;;;;;;5072379;28;20411;-59
2021/01/14 04:39:50;;;;;;;3.47;0.40;;;21.10;31.90;;;;;;5072025;28;20875;-59
2021/01/14 04:42:18;;;;;;;3.20;0.40;;;21.10;32.30;;;;;;5072137;28;20376;-59
2021/01/14 04:44:44;;;;;;;3.03;0.50;;;21.10;32.30;;;;;;5071342;28;20415;-60
2021/01/14 04:47:14;;;;;;;2.45;0.55;;;21.20;32.60;;;;;;5071444;28;20906;-60
2021/01/14 04:49:41;;;;;;;1.20;0.40;;;21.20;32.70;;;;;;5071894;28;20419;-59
2021/01/14 04:52:15;;;;;;;11.25;0.43;;;21.20;32.20;;;;;;5072179;28;20433;-59
2021/01/14 04:54:42;;;;;;;5.45;0.50;;;21.30;32.50;;;;;;5071160;28;20474;-59
2021/01/14 04:57:20;;;;;;;5.25;0.55;;;21.20;32.10;;;;;;5071546;28;20414;-59
2021/01/14 04:59:59;;;;;;;2.08;0.30;;;21.10;32.30;;;;;;5071234;28;20392;-59
2021/01/14 05:02:26;;;;;;;2.53;0.60;;;21.10;32.10;;;;;;5071556;28;20472;-59
2021/01/14 05:04:53;;;;;;;1.70;0.30;;;21.10;32.20;;;;;;5071323;28;20403;-59
2021/01/14 05:07:30;;;;;;;3.83;0.40;;;21.10;31.60;;;;;;5071549;28;20386;-59
2021/01/14 05:10:05;;;;;;;3.25;0.47;;;21.10;31.20;;;;;;5071683;28;20387;-59
2021/01/14 05:12:33;;;;;;;2.47;0.30;;;21.00;30.80;;;;;;5070096;28;20783;-59
2021/01/14 05:15:00;;;;;;;2.10;0.40;;;21.00;30.70;;;;;;5071452;28;20412;-59
2021/01/14 05:17:27;;;;;;;1.75;0.30;;;21.00;30.50;;;;;;5071499;28;20831;-59
2021/01/14 05:19:54;;;;;;;0.57;0.30;;;21.00;30.30;;;;;;5071633;28;20491;-59
2021/01/14 05:22:23;;;;;;;2.42;0.40;;;21.00;30.30;;;;;;5071176;28;20380;-60
2021/01/14 05:25:04;;;;;;;2.47;0.50;;;21.00;30.30;;;;;;5071215;28;20428;-61
2021/01/14 05:27:30;;;;;;;3.83;0.35;;;20.90;30.40;;;;;;5071315;28;20425;-61
2021/01/14 05:30:07;;;;;;;3.42;0.50;;;20.90;31.50;;;;;;5070328;28;20396;-61
2021/01/14 05:32:40;;;;;;;2.88;0.45;;;20.90;31.10;;;;;;5071070;28;20891;-61
2021/01/14 05:35:08;;;;;;;2.15;0.50;;;20.90;31.10;;;;;;5071408;28;20424;-61
2021/01/14 05:37:42;;;;;;;7.15;0.60;;;20.90;31.40;;;;;;5071412;28;20416;-61
2021/01/14 05:40:09;;;;;;;2.67;0.40;;;21.00;31.20;;;;;;5071370;28;20392;-61
2021/01/14 05:42:35;;;;;;;3.60;0.70;;;20.90;30.50;;;;;;5070574;28;20379;-61
2021/01/14 05:45:00;;;;;;;4.43;0.50;;;21.00;30.40;;;;;;5071400;28;20400;-61
2021/01/14 05:47:28;;;;;;;3.63;0.70;;;21.00;30.30;;;;;;5071302;28;20384;-61
2021/01/14 05:50:00;;;;;;;2.55;0.70;;;20.90;30.10;;;;;;5071274;28;20398;-60
2021/01/14 05:52:28;;;;;;;3.10;0.80;;;21.00;30.10;;;;;;5071137;28;20880;-61
2021/01/14 05:55:15;;;;;;;2.25;0.70;;;20.90;30.00;;;;;;5071014;28;20416;-61
2021/01/14 05:58:01;;;;;;;1.77;0.60;;;21.00;30.00;;;;;;5071327;28;20380;-61
2021/01/14 06:00:33;;;;;;;1.30;0.60;;;20.90;30.00;;;;;;5071146;28;20402;-61
2021/01/14 06:03:19;;;;;;;1.25;0.60;;;20.90;30.00;;;;;;5071030;28;20438;-61
2021/01/14 06:05:45;;;;;;;1.40;0.80;;;20.90;29.90;;;;;;5071134;28;20471;-61
2021/01/14 06:08:20;;;;;;;1.83;0.67;;;20.90;29.90;;;;;;5071076;28;20486;-61
2021/01/14 06:10:46;;;;;;;2.22;0.70;;;20.90;29.90;;;;;;5071157;28;20387;-61
2021/01/14 06:13:12;;;;;;;1.65;0.70;;;20.90;29.90;;;;;;5075015;28;20387;-61
2021/01/14 06:15:38;;;;;;;3.05;0.80;;;20.90;29.80;;;;;;5074945;28;20902;-61
2021/01/14 06:18:09;;;;;;;2.40;0.77;;;20.90;29.80;;;;;;5073114;28;20419;-61
2021/01/14 06:20:56;;;;;;;1.83;0.90;;;20.90;29.80;;;;;;5074735;28;20419;-61
2021/01/14 06:23:23;;;;;;;1.20;0.80;;;20.90;29.70;;;;;;5073160;28;20392;-61
2021/01/14 06:25:50;;;;;;;2.03;0.80;;;20.90;29.70;;;;;;5073514;28;20765;-60
2021/01/14 06:28:21;;;;;;;1.45;0.80;;;20.90;29.70;;;;;;5074847;28;20391;-61
2021/01/14 06:31:08;;;;;;;1.48;0.90;;;20.90;29.60;;;;;;5072233;28;20404;-61
2021/01/14 06:33:34;;;;;;;1.90;1.00;;;20.90;29.60;;;;;;5063810;28;20866;-61
2021/01/14 06:36:07;;;;;;;1.70;0.90;;;20.90;29.60;;;;;;5074358;28;20530;-61
2021/01/14 06:38:45;;;;;;;3.65;1.00;;;20.90;29.60;;;;;;5074360;28;20418;-61
2021/01/14 06:41:18;;;;;;;1.70;0.90;;;20.90;29.60;;;;;;5074533;28;20934;-60
2021/01/14 06:43:49;;;;;;;1.70;0.90;;;20.80;29.60;;;;;;5074230;28;20472;-61
2021/01/14 06:46:19;;;;;;;2.07;0.97;;;20.80;29.60;;;;;;5074576;28;20384;-60
2021/01/14 06:49:15;;;;;;;2.90;1.10;;;20.80;29.60;;;;;;5074030;28;20864;-60
2021/01/14 06:52:04;;;;;;;1.90;1.00;;;20.80;29.60;;;;;;5074296;28;20876;-61
2021/01/14 06:54:38;;;;;;;2.17;1.00;;;20.80;29.60;;;;;;5065797;28;20420;-60
2021/01/14 06:57:15;;;;;;;1.63;1.00;;;20.80;29.50;;;;;;5074193;28;20425;-61
2021/01/14 06:59:42;;;;;;;1.40;0.75;;;20.80;29.50;;;;;;5074235;28;20453;-61
2021/01/14 07:02:19;;;;;;;1.60;0.93;;;20.80;29.50;;;;;;5074144;28;20394;-61
2021/01/14 07:04:45;;;;;;;1.52;0.93;;;20.80;29.60;;;;;;5073725;28;20396;-60
2021/01/14 07:07:25;;;;;;;1.53;0.90;;;20.70;29.50;;;;;;5073999;28;20919;-61
2021/01/14 07:10:02;;;;;;;1.80;0.90;;;20.70;29.50;;;;;;5074074;28;20388;-60
2021/01/14 07:12:28;;;;;;;1.77;1.10;;;20.70;29.50;;;;;;5073782;28;20388;-61
2021/01/14 07:15:04;;;;;;;2.00;1.00;;;20.70;29.50;;;;;;5073668;28;20485;-61
2021/01/14 07:17:33;;;;;;;1.60;0.93;;;20.70;29.40;;;;;;5073849;28;20376;-61
2021/01/14 07:20:00;;;;;;;1.67;0.90;;;20.70;29.40;;;;;;5073817;28;20399;-61
2021/01/14 07:22:26;;;;;;;1.48;0.80;;;20.70;29.40;;;;;;5073265;28;20418;-61
2021/01/14 07:24:54;;;;;;;1.58;0.98;;;20.70;29.40;;;;;;5073194;28;20420;-61
2021/01/14 07:27:20;;;;;;;1.83;1.10;;;20.70;29.40;;;;;;5072320;28;20403;-61
2021/01/14 07:29:47;;;;;;;1.87;0.80;;;20.70;29.50;;;;;;5073653;28;20831;-61
2021/01/14 07:32:13;;;;;;;1.53;0.80;;;20.70;29.40;;;;;;5073544;28;20471;-61
2021/01/14 07:34:45;;;;;;;1.50;0.93;;;20.70;29.50;;;;;;5073169;28;20516;-61
2021/01/14 07:37:13;;;;;;;1.30;0.90;;;20.60;29.90;;;;;;5073509;28;20447;-61
2021/01/14 07:39:53;;;;;;;1.20;0.80;;;20.60;29.40;;;;;;5073525;28;20423;-61
2021/01/14 07:42:21;;;;;;;1.40;0.80;;;20.60;29.40;;;;;;5073427;28;20384;-61
2021/01/14 07:44:50;;;;;;;1.58;0.88;;;20.60;29.40;;;;;;5072880;28;20772;-61
2021/01/14 07:47:42;;;;;;;1.20;0.80;;;20.60;29.40;;;;;;5073378;28;20457;-61
2021/01/14 07:50:27;;;;;;;1.15;0.80;;;20.60;29.40;;;;;;5070247;28;20392;-61
2021/01/14 07:52:57;;;;;;;1.05;0.70;;;20.70;29.40;;;;;;5072865;28;20402;-61
2021/01/14 07:55:34;;;;;;;1.27;0.93;;;20.60;29.30;;;;;;5073144;28;20412;-61
2021/01/14 07:58:12;;;;;;;1.50;0.93;;;20.60;29.40;;;;;;5073057;28;20508;-61
2021/01/14 08:00:39;;;;;;;1.65;0.90;;;20.60;29.40;;;;;;5072811;28;20440;-61
2021/01/14 08:03:08;;;;;;;1.23;0.88;;;20.60;29.30;;;;;;5072821;28;20419;-61
2021/01/14 08:05:57;;;;;;;1.23;0.75;;;20.60;29.30;;;;;;5072986;28;20407;-61
2021/01/14 08:08:38;;;;;;;1.30;0.85;;;20.60;29.30;;;;;;5072967;28;20420;-61
2021/01/14 08:11:21;;;;;;;1.50;0.88;;;20.60;29.30;;;;;;5072681;28;20391;-61
2021/01/14 08:14:05;;;;;;;1.50;0.90;;;20.60;29.30;;;;;;5072268;28;20419;-61
2021/01/14 08:16:43;;;;;;;1.25;0.80;;;20.60;29.30;;;;;;5072286;28;20388;-61
2021/01/14 08:19:32;;;;;;;1.27;0.85;;;20.60;29.30;;;;;;5072684;28;20392;-61
2021/01/14 08:21:57;;;;;;;1.35;0.80;;;20.60;29.20;;;;;;5072678;28;20387;-61
2021/01/14 08:24:46;;;;;;;1.10;0.80;;;20.60;29.30;;;;;;5070337;28;20380;-61
2021/01/14 08:27:20;;;;;;;1.10;0.80;;;20.60;29.20;;;;;;5070677;28;20471;-61
2021/01/14 08:29:59;;;;;;;1.30;0.90;;;20.60;29.20;;;;;;5072161;28;20752;-61
2021/01/14 08:32:28;;;;;;;1.33;0.70;;;20.60;29.20;;;;;;5063332;28;20794;-61
2021/01/14 08:34:55;;;;;;;1.40;0.73;;;20.60;29.10;;;;;;5068942;28;20511;-61
2021/01/14 08:37:33;;;;;;;1.27;0.75;;;20.60;29.20;;;;;;5072327;28;20392;-60
2021/01/14 08:40:00;;;;;;;1.07;0.60;;;20.60;29.20;;;;;;5072107;28;20463;-59
2021/01/14 08:42:35;;;;;;;1.13;0.70;;;20.60;29.10;;;;;;5070635;28;20887;-59
2021/01/14 08:45:06;;;;;;;1.48;0.90;;;20.60;29.10;;;;;;5072011;28;20417;-59
2021/01/14 08:47:58;;;;;;;1.30;0.82;;;20.60;29.10;;;;;;5070865;28;20392;-59
2021/01/14 08:50:34;;;;;;;1.50;0.80;;;20.60;29.10;;;;;;5071755;28;20392;-59
2021/01/14 08:53:02;;;;;;;1.60;0.80;;;20.60;29.10;;;;;;5071845;28;20402;-58
2021/01/14 08:55:29;;;;;;;1.27;0.75;;;20.60;29.20;;;;;;5071856;28;20646;-59
2021/01/14 08:57:56;;;;;;;1.08;0.70;;;20.60;29.20;;;;;;5072147;28;20463;-59
2021/01/14 09:00:23;;;;;;;0.90;0.70;;;20.60;29.20;;;;;;5071823;28;20426;-59
2021/01/14 09:02:49;;;;;;;0.98;0.60;;;20.50;29.10;;;;;;5070921;28;20388;-59
2021/01/14 09:05:15;;;;;;;1.17;0.70;;;20.50;29.10;;;;;;5071728;28;20392;-59
2021/01/14 09:07:49;;;;;;;1.17;0.70;;;20.60;29.10;;;;;;5071870;28;20508;-59
2021/01/14 09:10:14;;;;;;;1.20;0.70;;;20.60;29.10;;;;;;5071748;28;20400;-59
2021/01/14 09:12:41;;;;;;;1.30;0.73;;;20.60;29.20;;;;;;5071243;28;20441;-59
2021/01/14 09:15:07;;;;;;;1.08;0.70;;;20.60;29.20;;;;;;5071435;28;20891;-59
2021/01/14 09:17:33;;;;;;;1.20;0.70;;;20.50;29.10;;;;;;5071634;28;20883;-62
2021/01/14 09:19:59;;;;;;;1.30;0.63;;;20.50;29.10;;;;;;5071740;28;20395;-59
2021/01/14 09:22:28;;;;;;;1.10;0.75;;;20.50;29.10;;;;;;5071502;28;20860;-59
2021/01/14 09:24:54;;;;;;;0.95;0.70;;;20.50;29.10;;;;;;5071208;28;20432;-59
2021/01/14 09:27:28;;;;;;;1.40;0.70;;;20.50;29.10;;;;;;5070236;28;20843;-59
2021/01/14 09:29:55;;;;;;;1.10;0.70;;;20.50;29.10;;;;;;5071550;28;20390;-60
2021/01/14 09:32:21;;;;;;;0.98;0.68;;;20.50;29.10;;;;;;5071500;28;20460;-60
2021/01/14 09:34:47;;;;;;;1.08;0.63;;;20.50;29.10;;;;;;5070771;28;20791;-60
2021/01/14 09:37:19;;;;;;;1.00;0.60;;;20.50;29.10;;;;;;5071434;28;20453;-60
2021/01/14 09:39:46;;;;;;;1.30;0.80;;;20.50;29.10;;;;;;5071418;28;20899;-60
2021/01/14 09:42:12;;;;;;;1.00;0.63;;;20.50;29.10;;;;;;5071359;28;20387;-59
2021/01/14 09:44:38;;;;;;;0.98;0.65;;;20.50;29.10;;;;;;5071183;28;20416;-60
2021/01/14 09:47:04;;;;;;;1.25;0.70;;;20.50;29.10;;;;;;5070628;28;20387;-61
2021/01/14 09:49:30;;;;;;;1.17;0.70;;;20.50;29.20;;;;;;5071303;28;20393;-60
2021/01/14 09:51:56;;;;;;;1.10;0.70;;;20.50;29.20;;;;;;5071394;28;20379;-60
2021/01/14 09:54:22;;;;;;;1.10;0.80;;;20.40;29.10;;;;;;5071166;28;20407;-59
2021/01/14 09:56:54;;;;;;;1.10;0.70;;;20.50;29.20;;;;;;5069539;28;20388;-59
2021/01/14 09:59:38;;;;;;;1.20;0.70;;;20.50;29.20;;;;;;5071233;28;20391;-60
2021/01/14 10:02:23;;;;;;;1.00;0.70;;;20.50;29.10;;;;;;5070018;28;20434;-60
2021/01/14 10:04:56;;;;;;;1.30;0.70;;;20.40;29.10;;;;;;5070788;28;20395;-60
2021/01/14 10:07:24;;;;;;;1.30;0.80;;;20.50;29.10;;;;;;5071225;28;20876;-60
2021/01/14 10:09:51;;;;;;;1.63;0.80;;;20.50;29.10;;;;;;5071274;28;20388;-60
2021/01/14 10:12:17;;;;;;;1.00;0.70;;;20.50;29.10;;;;;;5071051;28;20461;-59
2021/01/14 10:14:43;;;;;;;1.38;0.60;;;20.50;29.00;;;;;;5070878;28;20903;-60
2021/01/14 10:17:10;;;;;;;1.17;0.80;;;20.50;29.10;;;;;;5070885;28;20384;-60
2021/01/14 10:19:50;;;;;;;1.02;0.70;;;20.50;29.00;;;;;;5071027;28;20923;-60
2021/01/14 10:22:16;;;;;;;1.10;0.80;;;20.50;29.00;;;;;;5071098;28;20421;-60
2021/01/14 10:24:42;;;;;;;1.00;0.68;;;20.40;29.00;;;;;;5070993;28;20403;-60
2021/01/14 10:27:15;;;;;;;1.40;0.80;;;20.50;29.00;;;;;;5070651;28;20380;-60
2021/01/14 10:29:42;;;;;;;1.20;0.70;;;20.50;29.00;;;;;;5070895;28;20410;-60
2021/01/14 10:32:09;;;;;;;1.40;0.82;;;20.50;29.10;;;;;;5070884;28;20391;-60
2021/01/14 10:34:41;;;;;;;1.30;0.73;;;20.40;28.60;;;;;;5070647;28;20407;-60
2021/01/14 10:37:22;;;;;;;0.97;0.63;;;20.50;28.70;;;;;;5070359;28;20808;-60
2021/01/14 10:39:49;;;;;;;1.55;0.80;;;20.50;29.00;;;;;;5070808;28;20427;-61
2021/01/14 10:42:34;;;;;;;1.40;0.82;;;20.50;29.00;;;;;;5070816;28;20384;-60
2021/01/14 10:45:03;;;;;;;1.20;0.77;;;20.50;29.00;;;;;;5069096;28;20748;-60
2021/01/14 10:47:29;;;;;;;1.50;0.90;;;20.50;29.00;;;;;;5070750;28;20387;-60
2021/01/14 10:49:55;;;;;;;1.10;0.80;;;20.50;28.90;;;;;;5070810;28;20905;-60
2021/01/14 10:52:21;;;;;;;1.55;0.80;;;20.50;28.90;;;;;;5070720;28;20419;-60
2021/01/14 10:54:57;;;;;;;1.43;0.90;;;20.50;28.90;;;;;;5070468;28;20524;-60
2021/01/14 10:57:23;;;;;;;1.30;0.90;;;20.50;29.00;;;;;;5070705;28;20384;-66
2021/01/14 10:59:48;;;;;;;1.58;0.93;;;20.50;29.40;;;;;;5074083;28;20398;-60
2021/01/14 11:02:21;;;;;;;1.52;0.80;;;20.50;29.00;;;;;;5074151;28;20392;-60
2021/01/14 11:04:56;;;;;;;1.00;0.73;;;20.50;29.00;;;;;;5072655;28;20471;-60
2021/01/14 11:07:21;;;;;;;1.38;0.98;;;20.50;29.00;;;;;;5073610;28;20411;-72
2021/01/14 11:09:51;;;;;;;1.23;0.90;;;20.50;29.00;;;;;;5067692;28;20452;-60
2021/01/14 11:12:17;;;;;;;1.60;0.90;;;20.50;29.00;;;;;;5059038;28;20386;-60
2021/01/14 11:14:44;;;;;;;1.30;0.80;;;20.50;29.10;;;;;;5054210;28;20420;-60
2021/01/14 11:17:13;;;;;;;1.35;0.80;;;20.40;29.00;;;;;;5053909;28;20873;-60
2021/01/14 11:19:41;;;;;;;1.20;0.80;;;20.50;29.00;;;;;;5054262;28;20384;-75
2021/01/14 11:22:06;;;;;;;1.50;0.80;;;20.50;29.00;;;;;;5053472;28;20397;-60
2021/01/14 11:24:32;;;;;;;1.35;0.75;;;20.40;29.00;;;;;;5062117;28;20513;-60
2021/01/14 11:26:58;;;;;;;2.10;0.93;;;20.40;29.00;;;;;;5072061;28;20450;-60
2021/01/14 11:29:24;;;;;;;5.30;0.98;;;20.40;29.50;;;;;;5088910;28;20425;-59
2021/01/14 11:31:50;;;;;;;3.30;1.00;;;20.40;31.20;;;;;;5073433;28;20900;-60
2021/01/14 11:34:16;;;;;;;1.75;1.00;;;20.50;31.40;;;;;;5071724;28;20412;-59
2021/01/14 11:36:42;;;;;;;1.90;1.00;;;20.50;31.60;;;;;;5073077;28;20388;-59
2021/01/14 11:39:08;;;;;;;1.40;0.90;;;20.50;31.30;;;;;;5072096;28;20395;-59
2021/01/14 11:41:33;;;;;;;2.85;1.05;;;20.60;31.00;;;;;;5072889;28;20869;-59
2021/01/14 11:43:59;;;;;;;2.20;0.90;;;20.60;30.80;;;;;;5072741;28;20411;-60
2021/01/14 11:46:25;;;;;;;1.70;0.82;;;20.60;30.40;;;;;;5072281;28;20430;-59
2021/01/14 11:48:51;;;;;;;2.92;0.90;;;20.60;30.70;;;;;;5068931;28;20744;-60
2021/01/14 11:51:18;;;;;;;2.70;0.90;;;20.60;30.10;;;;;;5071110;28;20414;-60
2021/01/14 11:53:43;;;;;;;3.03;0.90;;;20.60;30.30;;;;;;5072946;28;20839;-59
2021/01/14 11:56:09;;;;;;;1.63;0.90;;;20.60;30.10;;;;;;5072557;28;20980;-60
2021/01/14 11:58:35;;;;;;;2.28;0.90;;;20.60;30.00;;;;;;5071948;28;20525;-60
2021/01/14 12:01:01;;;;;;;4.45;1.00;;;20.50;30.00;;;;;;5072269;28;20545;-60
2021/01/14 12:03:29;;;;;;;5.47;1.10;;;20.50;30.00;;;;;;5071146;28;20408;-60
2021/01/14 12:05:55;;;;;;;5.07;1.20;;;20.50;30.10;;;;;;5084709;28;20456;-63
2021/01/14 12:08:22;;;;;;;4.43;1.00;;;20.60;30.30;;;;;;5092997;28;20393;-60
2021/01/14 12:10:47;;;;;;;2.55;0.93;;;20.60;30.30;;;;;;5092474;28;20401;-60
2021/01/14 12:13:13;;;;;;;2.53;1.02;;;20.50;30.40;;;;;;5091083;28;20382;-60
2021/01/14 12:15:39;;;;;;;3.10;1.30;;;20.50;30.40;;;;;;5092239;28;20979;-61
2021/01/14 12:18:05;;;;;;;3.30;1.00;;;20.60;30.40;;;;;;5092547;28;20392;-60
2021/01/14 12:20:30;;;;;;;1.92;0.90;;;20.50;30.40;;;;;;5081665;28;20450;-60
2021/01/14 12:22:56;;;;;;;2.50;1.00;;;20.50;30.40;;;;;;5072047;28;20395;-69
2021/01/14 12:25:21;;;;;;;1.83;0.90;;;20.50;30.50;;;;;;5072791;28;20482;-61
2021/01/14 12:27:47;;;;;;;2.67;0.97;;;20.50;30.60;;;;;;5072659;28;20387;-72
2021/01/14 12:30:13;;;;;;;2.55;1.10;;;20.50;30.50;;;;;;5072578;28;20407;-76
2021/01/14 12:32:39;;;;;;;2.22;1.02;;;20.50;31.20;;;;;;5072611;28;20388;-62
2021/01/14 12:35:06;;;;;;;2.10;1.00;;;20.50;30.60;;;;;;5071932;28;20900;-59
2021/01/14 12:37:37;;;;;;;2.70;1.10;;;20.40;30.50;;;;;;5072331;28;20384;-59
2021/01/14 12:40:08;;;;;;;2.23;0.90;;;20.40;30.60;;;;;;5077773;28;20398;-76
2021/01/14 12:42:34;;;;;;;2.92;0.85;;;20.40;30.60;;;;;;5091468;28;20382;-75
2021/01/14 12:45:00;;;;;;;2.90;1.05;;;20.40;30.70;;;;;;5091642;28;20374;-60
2021/01/14 12:47:26;;;;;;;1.93;1.00;;;20.40;30.70;;;;;;5092282;28;20524;-76
2021/01/14 12:49:52;;;;;;;1.50;0.80;;;20.40;30.50;;;;;;5092453;28;20385;-76
2021/01/14 12:52:17;;;;;;;2.13;1.00;;;20.40;30.60;;;;;;5092503;28;20864;-73
2021/01/14 12:54:43;;;;;;;1.60;0.80;;;20.40;30.50;;;;;;5092631;28;20409;-76
2021/01/14 12:57:09;;;;;;;1.45;0.90;;;20.40;30.70;;;;;;5091957;28;20390;-76
2021/01/14 12:59:34;;;;;;;1.63;1.00;;;20.40;30.70;;;;;;5084388;28;20422;-75